Bookmark and Share
Track history (hours):
 

Am Tubarao

Last reported at 2014-Mar-22 08:29 UTC. Time now 2014-Apr-25 05:48 UTC.
Position N 50°29' W 000°05'.
Warning: this ship's position is 33 days out of date.

Length 230 m; draft 7 m.

Type: Cargo ship. MMSI: 636015171.

NotesDate/timePositionNaut miles runAvg speedWind from/ knotsBaromVisibWave heightAir tempDewpointWater temp
2014-Mar-22 08:29N 50°29' W 000°05'8 8.6
2014-Mar-22 07:32N 50°31' E 000°07'9 8.9
2014-Mar-22 06:33N 50°34' E 000°20'8 8.2
2014-Mar-22 05:33N 50°36' E 000°33'8 7.6
2014-Mar-22 04:33N 50°39' E 000°43'7 6.8
2014-Mar-22 03:33N 50°43' E 000°52'19 5.9
2014-Mar-22 00:26N 50°53' E 001°16'7 8.1
2014-Mar-21 23:33N 50°59' E 001°23'1212.4
2014-Mar-21 22:33N 51°04' E 001°41'1414.4
2014-Mar-21 21:33N 51°03' E 002°04'1010.3
2014-Mar-21 20:33N 51°03' E 002°20'1 0.8
2014-Mar-21 19:33N 51°03' E 002°21'0 0.1
2014-Mar-21 18:22N 51°03' E 002°22'0 0.0
2014-Mar-21 17:31N 51°03' E 002°22'0 0.0
2014-Mar-21 16:31N 51°03' E 002°22'0 0.0
2014-Mar-21 15:31N 51°03' E 002°22'0 0.0
2014-Mar-21 14:28N 51°03' E 002°22'0 0.0
2014-Mar-21 13:31N 51°03' E 002°22'0 0.0
2014-Mar-21 12:31N 51°03' E 002°22'0 0.0
2014-Mar-21 11:31N 51°03' E 002°22'0 0.0
2014-Mar-21 10:28N 51°03' E 002°22'0 0.0
2014-Mar-21 09:31N 51°03' E 002°22'0 0.0
2014-Mar-21 08:28N 51°03' E 002°22'0 0.0
2014-Mar-21 07:25N 51°03' E 002°22'0 0.0
2014-Mar-21 06:25N 51°03' E 002°22'0 0.0
2014-Mar-21 05:28N 51°03' E 002°22'0 0.0
2014-Mar-21 04:28N 51°03' E 002°22'0 0.0
2014-Mar-21 03:31N 51°03' E 002°22'0 0.0
2014-Mar-21 02:28N 51°03' E 002°22'0 0.0
2014-Mar-21 01:28N 51°03' E 002°22'0 0.0
2014-Mar-21 00:19N 51°03' E 002°22'0 0.0
2014-Mar-20 23:28N 51°03' E 002°22'0 0.0
2014-Mar-20 22:31N 51°03' E 002°22'0 0.0
2014-Mar-20 21:25N 51°03' E 002°22'0 0.0
2014-Mar-20 20:31N 51°03' E 002°22'0 0.0
2014-Mar-20 19:25N 51°03' E 002°22'0 0.0
2014-Mar-20 18:28N 51°03' E 002°22'0 0.0
2014-Mar-20 17:31N 51°03' E 002°22'0 0.0
2014-Mar-20 16:31N 51°03' E 002°22'0 0.0
2014-Mar-20 15:31N 51°03' E 002°22'0 0.0
2014-Mar-20 13:31N 51°03' E 002°22'0 0.0
2014-Mar-20 12:25N 51°03' E 002°22'0 0.0
2014-Mar-20 11:31N 51°03' E 002°22'0 0.0
2014-Mar-20 10:28N 51°03' E 002°22'0 0.0
2014-Mar-20 09:31N 51°03' E 002°22'0 0.0
2014-Mar-20 08:31N 51°03' E 002°22'0 0.0
2014-Mar-20 07:28N 51°03' E 002°22'0 0.0
2014-Mar-20 06:25N 51°03' E 002°22'0 0.0
2014-Mar-20 05:31N 51°03' E 002°22'0 0.0
2014-Mar-20 04:31N 51°03' E 002°22'0 0.0
2014-Mar-20 03:31N 51°03' E 002°22'0 0.0
2014-Mar-20 02:31N 51°03' E 002°22'0 0.0
2014-Mar-20 01:31N 51°03' E 002°22'0 0.0
2014-Mar-20 00:31N 51°03' E 002°22'0 0.0
2014-Mar-19 23:22N 51°03' E 002°22'0 0.0
2014-Mar-19 22:25N 51°03' E 002°22'0 0.0
2014-Mar-19 21:31N 51°03' E 002°22'0 0.0
2014-Mar-19 20:31N 51°03' E 002°22'0 0.0
2014-Mar-19 19:31N 51°03' E 002°22'0 0.0
2014-Mar-19 18:19N 51°03' E 002°22'0 0.0
2014-Mar-19 17:28N 51°03' E 002°22'0 0.0
2014-Mar-19 16:28N 51°03' E 002°22'0 0.0
2014-Mar-19 15:28N 51°03' E 002°22'0 0.0
2014-Mar-19 14:31N 51°03' E 002°22'0 0.0
2014-Mar-19 13:31N 51°03' E 002°22'0 0.0
2014-Mar-19 12:28N 51°03' E 002°22'0 0.0
2014-Mar-19 11:34N 51°03' E 002°22'0 0.0
2014-Mar-19 10:28N 51°03' E 002°22'0 0.0
2014-Mar-19 09:25N 51°03' E 002°22'0 0.0
2014-Mar-19 08:25N 51°03' E 002°22'0 0.0
2014-Mar-19 07:31N 51°03' E 002°22'0 0.0
2014-Mar-19 06:28N 51°03' E 002°22'0 0.0
2014-Mar-19 05:28N 51°03' E 002°22'0 0.0
2014-Mar-19 04:16N 51°03' E 002°22'0 0.0
2014-Mar-19 03:31N 51°03' E 002°22'0 0.0
2014-Mar-19 02:22N 51°03' E 002°22'0 0.0
2014-Mar-19 01:33N 51°03' E 002°22'0 0.0
2014-Mar-19 00:25N 51°03' E 002°22'0 0.0
2014-Mar-18 23:33N 51°03' E 002°22'0 0.0
2014-Mar-18 22:31N 51°03' E 002°22'0 0.0
2014-Mar-18 21:18N 51°03' E 002°22'0 0.0
2014-Mar-18 20:12N 51°03' E 002°22'0 0.0
2014-Mar-18 19:30N 51°03' E 002°22'0 0.0
2014-Mar-18 18:21N 51°03' E 002°22'0 0.0
2014-Mar-18 17:30N 51°03' E 002°22'0 0.0
2014-Mar-18 16:30N 51°03' E 002°22'0 0.0
2014-Mar-18 15:33N 51°03' E 002°22'0 0.0
2014-Mar-18 14:33N 51°03' E 002°22'0 0.0
2014-Mar-18 13:30N 51°03' E 002°22'0 0.0
2014-Mar-18 12:33N 51°03' E 002°22'0 0.0
2014-Mar-18 11:33N 51°03' E 002°22'0 0.0
2014-Mar-18 10:33N 51°03' E 002°22'0 0.0
2014-Mar-18 09:33N 51°03' E 002°22'0 0.0
2014-Mar-18 08:33N 51°03' E 002°22'0 0.0
2014-Mar-18 07:33N 51°03' E 002°22'0 0.0
2014-Mar-18 06:33N 51°03' E 002°22'0 0.0
2014-Mar-18 05:33N 51°03' E 002°22'0 0.0
2014-Mar-18 04:33N 51°03' E 002°22'0 0.0
2014-Mar-18 03:24N 51°03' E 002°22'0 0.0
2014-Mar-18 02:33N 51°03' E 002°22'0 0.0
2014-Mar-18 01:33N 51°03' E 002°22'0 0.0
2014-Mar-18 00:33N 51°03' E 002°22'0 0.0
2014-Mar-17 23:33N 51°03' E 002°22'0 0.0
2014-Mar-17 22:33N 51°03' E 002°22'0 0.0
2014-Mar-17 21:33N 51°03' E 002°22'0 0.0
2014-Mar-17 20:33N 51°03' E 002°22'0 0.0
2014-Mar-17 19:33N 51°03' E 002°22'0 0.0
2014-Mar-17 18:33N 51°03' E 002°22'0 0.0
2014-Mar-17 17:33N 51°03' E 002°22'0 0.0
2014-Mar-17 16:30N 51°03' E 002°22'0 0.0
2014-Mar-17 15:27N 51°03' E 002°22'0 0.0
2014-Mar-17 14:33N 51°03' E 002°22'0 0.0
2014-Mar-17 13:33N 51°03' E 002°22'0 0.0
2014-Mar-17 12:33N 51°03' E 002°22'0 0.0
2014-Mar-17 11:30N 51°03' E 002°22'0 0.0
2014-Mar-17 10:33N 51°03' E 002°22'0 0.0
2014-Mar-17 09:33N 51°03' E 002°22'0 0.0
2014-Mar-17 08:15N 51°03' E 002°22'0 0.0
2014-Mar-17 07:03N 51°03' E 002°22'0 0.0
2014-Mar-17 06:33N 51°03' E 002°22'0 0.0
2014-Mar-17 05:30N 51°03' E 002°22'0 0.0
2014-Mar-17 04:27N 51°03' E 002°22'0 0.0
2014-Mar-17 03:27N 51°03' E 002°22'0 0.0
2014-Mar-17 02:18N 51°03' E 002°22'0 0.0
2014-Mar-17 01:33N 51°03' E 002°22'0 0.0
2014-Mar-17 00:30N 51°03' E 002°22'0 0.0
2014-Mar-16 23:27N 51°03' E 002°22'0 0.0
2014-Mar-16 19:33N 51°03' E 002°22'0 0.0
2014-Mar-16 18:30N 51°03' E 002°22'0 0.0
2014-Mar-16 17:33N 51°03' E 002°22'0 0.0
2014-Mar-16 16:33N 51°03' E 002°22'0 0.0
2014-Mar-16 15:30N 51°03' E 002°22'0 0.0
2014-Mar-16 13:33N 51°03' E 002°22'0 0.0
2014-Mar-16 12:33N 51°03' E 002°22'0 0.0
2014-Mar-16 11:33N 51°03' E 002°22'0 0.0
2014-Mar-16 10:33N 51°03' E 002°22'0 0.0
2014-Mar-16 09:33N 51°03' E 002°22'0 0.0
2014-Mar-16 08:30N 51°03' E 002°22'0 0.0
2014-Mar-16 07:33N 51°03' E 002°22'0 0.0
2014-Mar-16 06:24N 51°03' E 002°22'0 0.0
2014-Mar-16 05:24N 51°03' E 002°22'0 0.0
2014-Mar-16 04:30N 51°03' E 002°22'0 0.0
2014-Mar-16 03:30N 51°03' E 002°22'0 0.0
2014-Mar-16 02:30N 51°03' E 002°22'0 0.0
2014-Mar-16 01:33N 51°03' E 002°22'0 0.0
2014-Mar-16 00:33N 51°03' E 002°22'0 0.0
2014-Mar-15 23:33N 51°03' E 002°22'0 0.0
2014-Mar-15 22:33N 51°03' E 002°22'0 0.0
2014-Mar-15 21:33N 51°03' E 002°22'0 0.0
2014-Mar-15 20:51N 51°03' E 002°22'0 0.0
2014-Mar-15 13:27N 51°03' E 002°22'0 0.0
2014-Mar-15 12:27N 51°03' E 002°22'0 0.0
2014-Mar-15 11:21N 51°03' E 002°22'0 0.0
2014-Mar-15 10:33N 51°03' E 002°22'0 0.0
2014-Mar-15 09:33N 51°03' E 002°22'0 0.0
2014-Mar-15 08:33N 51°03' E 002°22'0 0.0
2014-Mar-15 07:33N 51°03' E 002°22'0 0.0
2014-Mar-15 06:24N 51°03' E 002°22'0 0.0
2014-Mar-15 05:24N 51°03' E 002°22'0 0.0
2014-Mar-15 04:33N 51°03' E 002°22'0 0.0
2014-Mar-15 03:33N 51°03' E 002°22'0 0.0
2014-Mar-15 02:33N 51°03' E 002°22'0 0.0
2014-Mar-15 01:33N 51°03' E 002°22'0 0.0
2014-Mar-15 00:24N 51°03' E 002°22'0 0.0
2014-Mar-14 23:33N 51°03' E 002°22'0 0.0
2014-Mar-14 22:27N 51°03' E 002°22'0 0.0
2014-Mar-14 21:30N 51°03' E 002°22'0 0.0
2014-Mar-14 20:33N 51°03' E 002°22'0 0.0
2014-Mar-14 19:33N 51°03' E 002°22'0 0.0
2014-Mar-14 17:33N 51°03' E 002°22'1 0.9
2014-Mar-14 16:33N 51°03' E 002°20'1 0.5
2014-Mar-14 15:31N 51°03' E 002°19'0 0.0
2014-Mar-14 14:31N 51°03' E 002°19'0 0.0
2014-Mar-14 13:28N 51°03' E 002°19'0 0.0
2014-Mar-14 12:28N 51°03' E 002°19'0 0.0
2014-Mar-14 11:31N 51°03' E 002°19'0 0.0
2014-Mar-14 10:28N 51°03' E 002°19'0 0.0
2014-Mar-14 09:25N 51°03' E 002°19'0 0.0
2014-Mar-14 08:28N 51°03' E 002°19'0 0.0
2014-Mar-14 07:28N 51°03' E 002°19'0 0.0
2014-Mar-14 06:31N 51°03' E 002°19'0 0.0
2014-Mar-14 05:25N 51°03' E 002°19'0 0.0
2014-Mar-14 04:31N 51°03' E 002°19'0 0.0
2014-Mar-14 03:25N 51°03' E 002°19'0 0.0
2014-Mar-14 02:25N 51°03' E 002°19'0 0.0
2014-Mar-14 01:31N 51°03' E 002°19'0 0.0
2014-Mar-14 00:31N 51°03' E 002°19'0 0.0
2014-Mar-13 23:31N 51°03' E 002°19'0 0.0
2014-Mar-13 22:31N 51°03' E 002°19'0 0.0
2014-Mar-13 21:31N 51°03' E 002°19'0 0.0
2014-Mar-13 20:31N 51°03' E 002°19'0 0.0
2014-Mar-13 19:31N 51°03' E 002°19'0 0.0
2014-Mar-13 18:31N 51°03' E 002°19'0 0.0
2014-Mar-13 17:31N 51°03' E 002°19'0 0.0
2014-Mar-13 16:31N 51°03' E 002°19'0 0.0
2014-Mar-13 15:31N 51°03' E 002°19'0 0.0
2014-Mar-13 14:31N 51°03' E 002°19'0 0.0
2014-Mar-13 13:31N 51°03' E 002°19'0 0.0
2014-Mar-13 12:22N 51°03' E 002°19'0 0.0
2014-Mar-13 11:31N 51°03' E 002°19'0 0.0
2014-Mar-13 10:31N 51°03' E 002°19'0 0.0
2014-Mar-13 09:22N 51°03' E 002°19'0 0.0
2014-Mar-13 08:31N 51°03' E 002°19'0 0.0
2014-Mar-13 07:31N 51°03' E 002°19'0 0.0
2014-Mar-13 06:31N 51°03' E 002°19'0 0.0
2014-Mar-13 05:31N 51°03' E 002°19'0 0.0
2014-Mar-13 04:31N 51°03' E 002°19'0 0.0
2014-Mar-13 03:31N 51°03' E 002°19'0 0.0
2014-Mar-13 02:31N 51°03' E 002°19'0 0.0
2014-Mar-13 01:31N 51°03' E 002°19'0 0.0
2014-Mar-13 00:07N 51°03' E 002°19'0 0.0
2014-Mar-12 23:28N 51°03' E 002°19'0 0.0
2014-Mar-12 22:31N 51°03' E 002°19'0 0.0
2014-Mar-12 21:31N 51°03' E 002°19'0 0.0
2014-Mar-12 20:31N 51°03' E 002°19'0 0.0
2014-Mar-12 19:31N 51°03' E 002°19'0 0.0
2014-Mar-12 18:31N 51°03' E 002°19'0 0.0
2014-Mar-12 17:31N 51°03' E 002°19'0 0.0
2014-Mar-12 16:31N 51°03' E 002°19'0 0.0
2014-Mar-12 15:34N 51°03' E 002°19'0 0.0
2014-Mar-12 14:10N 51°03' E 002°19'0 0.0
2014-Mar-12 13:31N 51°03' E 002°19'0 0.0
2014-Mar-12 12:28N 51°03' E 002°19'0 0.0
2014-Mar-12 11:31N 51°03' E 002°19'0 0.0
2014-Mar-12 10:28N 51°03' E 002°19'0 0.0
2014-Mar-12 09:31N 51°03' E 002°19'  

Dump ship's entire track history

sailing weather and tide predictions

Am Tubarao — A8ZA9 — position and weather